createdAt,value
2024-05-09T00:01:30.352Z,12.52
2024-05-09T00:04:00.581Z,12.71
2024-05-09T00:06:31.495Z,12.67
2024-05-09T00:09:04.835Z,12.35
2024-05-09T00:11:35.818Z,12.70
2024-05-09T00:14:05.971Z,12.86
2024-05-09T00:16:36.822Z,12.81
2024-05-09T00:19:07.356Z,12.86
2024-05-09T00:21:39.170Z,12.94
2024-05-09T00:24:12.132Z,12.68
2024-05-09T00:26:42.722Z,13.38
2024-05-09T00:29:12.922Z,13.53
2024-05-09T00:31:43.684Z,13.79
2024-05-09T00:34:13.998Z,13.51
2024-05-09T00:36:44.771Z,13.73
2024-05-09T00:39:17.482Z,13.15
2024-05-09T00:41:48.372Z,13.69
2024-05-09T00:44:18.929Z,13.76
2024-05-09T00:46:54.718Z,13.64
2024-05-09T00:49:25.213Z,13.82
2024-05-09T00:51:57.558Z,13.67
2024-05-09T00:54:30.567Z,13.68
2024-05-09T00:57:01.359Z,13.88
2024-05-09T00:59:33.018Z,13.66
2024-05-09T01:02:04.124Z,13.71
2024-05-09T01:04:34.531Z,13.77
2024-05-09T01:07:05.365Z,13.75
2024-05-09T01:09:38.395Z,13.45
2024-05-09T01:12:09.732Z,13.68
2024-05-09T01:14:40.525Z,13.78
2024-05-09T01:17:11.796Z,13.86
2024-05-09T01:19:42.301Z,13.96
2024-05-09T01:22:12.910Z,13.87
2024-05-09T01:24:45.793Z,13.68
2024-05-09T01:27:16.534Z,14.18
2024-05-09T01:29:46.780Z,13.93
2024-05-09T01:32:17.391Z,14.08
2024-05-09T01:34:47.755Z,13.89
2024-05-09T01:37:18.348Z,13.85
2024-05-09T01:39:51.137Z,13.62
2024-05-09T01:42:21.693Z,14.07
2024-05-09T01:44:51.754Z,14.08
2024-05-09T01:47:22.730Z,13.83
2024-05-09T01:49:53.342Z,13.89
2024-05-09T01:52:23.983Z,13.97
2024-05-09T01:54:56.832Z,13.74
2024-05-09T01:57:27.457Z,14.05
2024-05-09T01:59:57.886Z,13.81
2024-05-09T02:02:29.018Z,13.71
2024-05-09T02:04:59.581Z,14.19
2024-05-09T02:07:30.127Z,13.91
2024-05-09T02:10:06.563Z,13.52
2024-05-09T02:12:40.168Z,14.03
2024-05-09T02:15:10.670Z,14.07
2024-05-09T02:17:41.683Z,14.02
2024-05-09T02:20:18.861Z,14.13
2024-05-09T02:22:58.255Z,14.22
2024-05-09T02:25:31.015Z,13.80
2024-05-09T02:28:01.782Z,14.45
2024-05-09T02:30:40.298Z,14.38
2024-05-09T02:33:12.389Z,14.38
2024-05-09T02:35:45.064Z,14.52
2024-05-09T02:38:13.643Z,14.49
2024-05-09T02:40:46.919Z,14.38
2024-05-09T02:43:14.918Z,14.51
2024-05-09T02:45:45.313Z,14.74
2024-05-09T02:48:14.255Z,14.79
2024-05-09T02:50:45.287Z,14.56
2024-05-09T02:53:14.421Z,14.65
2024-05-09T02:55:47.652Z,14.33
2024-05-09T02:58:15.667Z,14.78
2024-05-09T03:00:45.975Z,14.81
2024-05-09T03:03:15.627Z,14.71
2024-05-09T03:05:47.156Z,14.77
2024-05-09T03:08:15.471Z,14.91
2024-05-09T03:10:48.625Z,14.48
2024-05-09T03:13:19.650Z,14.80
2024-05-09T03:15:49.751Z,14.69
2024-05-09T03:18:17.969Z,14.69
2024-05-09T03:20:48.249Z,14.81
2024-05-09T03:23:16.653Z,14.72
2024-05-09T03:25:49.833Z,14.29
2024-05-09T03:28:17.801Z,14.75
2024-05-09T03:30:47.969Z,14.75
2024-05-09T03:33:20.288Z,14.61
2024-05-09T03:35:49.530Z,14.49
2024-05-09T03:38:20.411Z,14.72
2024-05-09T03:40:53.557Z,14.46
2024-05-09T03:43:24.320Z,14.37
2024-05-09T03:45:54.803Z,14.34
2024-05-09T03:48:22.872Z,14.14
2024-05-09T03:50:53.649Z,14.00
2024-05-09T03:53:23.069Z,14.11
2024-05-09T03:55:57.304Z,13.79
2024-05-09T03:58:25.377Z,13.57
2024-05-09T04:00:55.552Z,13.46
2024-05-09T04:03:23.982Z,13.26
2024-05-09T04:05:54.272Z,13.18
2024-05-09T04:08:22.469Z,13.20
2024-05-09T04:10:55.771Z,13.41
2024-05-09T04:13:23.664Z,13.19
2024-05-09T04:15:53.815Z,13.19
2024-05-09T04:18:21.817Z,12.67
2024-05-09T04:20:52.145Z,12.66
2024-05-09T04:23:20.279Z,12.51
2024-05-09T04:25:50.701Z,12.35
2024-05-09T04:28:21.428Z,11.86
2024-05-09T04:30:51.768Z,11.58
2024-05-09T04:33:20.916Z,11.53
2024-05-09T04:35:51.655Z,10.73
2024-05-09T04:38:19.596Z,10.80
2024-05-09T04:40:50.075Z,10.31
2024-05-09T04:43:21.517Z,9.82
2024-05-09T04:45:51.842Z,10.30
2024-05-09T04:48:19.960Z,10.15
2024-05-09T04:50:50.489Z,9.87
2024-05-09T04:53:18.599Z,9.87
2024-05-09T04:55:48.999Z,9.03
2024-05-09T04:58:17.421Z,8.67
2024-05-09T05:00:50.651Z,8.55
2024-05-09T05:03:20.003Z,8.27
2024-05-09T05:05:50.949Z,8.10
2024-05-09T05:08:19.632Z,7.69
2024-05-09T05:10:50.912Z,7.20
2024-05-09T05:13:24.028Z,6.88
2024-05-09T05:15:58.756Z,6.46
2024-05-09T05:18:27.850Z,6.96
2024-05-09T05:20:59.141Z,7.20
2024-05-09T05:23:27.232Z,7.36
2024-05-09T05:25:57.754Z,6.65
2024-05-09T05:28:25.785Z,6.42
2024-05-09T05:30:58.748Z,5.58
2024-05-09T05:33:27.037Z,6.25
2024-05-09T05:35:57.607Z,5.52
2024-05-09T05:38:28.810Z,4.91
2024-05-09T05:40:56.423Z,3.75
2024-05-09T05:43:27.165Z,4.85
2024-05-09T05:45:57.609Z,3.94
2024-05-09T05:48:28.870Z,4.33
2024-05-09T05:50:56.706Z,3.42
2024-05-09T05:53:27.515Z,3.60
2024-05-09T05:55:55.150Z,3.43
2024-05-09T05:58:25.900Z,3.28
2024-05-09T06:00:53.960Z,3.57
2024-05-09T06:03:28.881Z,3.06
2024-05-09T06:05:57.012Z,3.23
2024-05-09T06:08:30.281Z,3.45
2024-05-09T06:10:59.349Z,2.58
2024-05-09T06:13:30.317Z,2.54
2024-05-09T06:16:00.201Z,2.11
2024-05-09T06:18:33.693Z,2.24
2024-05-09T06:21:01.739Z,2.39
2024-05-09T06:23:32.563Z,1.75
2024-05-09T06:26:00.300Z,1.62
2024-05-09T06:28:31.158Z,1.43
2024-05-09T06:30:58.504Z,0.59
2024-05-09T06:33:29.246Z,1.46
2024-05-09T06:35:59.513Z,0.69
2024-05-09T06:38:31.113Z,1.44
2024-05-09T06:40:59.042Z,0.80
2024-05-09T06:43:30.631Z,1.25
2024-05-09T06:45:57.973Z,0.21
2024-05-09T06:48:29.641Z,0.96
2024-05-09T06:51:01.025Z,0.00
2024-05-09T06:53:32.384Z,0.49
2024-05-09T06:56:00.003Z,0.39
2024-05-09T06:58:30.725Z,1.06
2024-05-09T07:00:58.384Z,1.24
2024-05-09T07:03:29.208Z,1.11
2024-05-09T07:05:59.680Z,0.84
2024-05-09T07:08:30.697Z,1.15
2024-05-09T07:10:58.382Z,0.00
2024-05-09T07:13:29.404Z,0.11
2024-05-09T07:16:00.137Z,0.00
2024-05-09T07:18:33.281Z,0.00
2024-05-09T07:21:04.070Z,0.00
2024-05-09T07:23:35.171Z,0.00
2024-05-09T07:26:02.914Z,0.00
2024-05-09T07:28:33.867Z,0.00
2024-05-09T07:31:01.687Z,0.00
2024-05-09T07:33:32.998Z,0.00
2024-05-09T07:36:03.612Z,0.00
2024-05-09T07:38:36.609Z,0.00
2024-05-09T07:41:04.447Z,0.00
2024-05-09T07:43:35.086Z,0.00
2024-05-09T07:46:51.839Z,0.00
2024-05-09T07:54:01.407Z,0.00
2024-05-09T07:56:31.743Z,0.00
2024-05-09T07:59:02.902Z,0.00
2024-05-09T08:01:30.560Z,0.00
2024-05-09T08:04:01.613Z,0.00
2024-05-09T08:06:32.676Z,0.00
2024-05-09T08:09:08.002Z,0.00
2024-05-09T08:11:38.825Z,0.00
2024-05-09T08:14:09.514Z,0.00
2024-05-09T08:16:37.033Z,0.00
2024-05-09T08:19:07.752Z,0.00
2024-05-09T08:21:38.091Z,0.00
2024-05-09T08:24:10.768Z,0.00
2024-05-09T08:26:38.945Z,0.00
2024-05-09T08:29:10.113Z,0.00
2024-05-09T08:31:38.253Z,0.00
2024-05-09T08:34:09.180Z,0.00
2024-05-09T08:36:41.037Z,0.00
2024-05-09T08:39:11.830Z,0.00
2024-05-09T08:41:42.346Z,0.00
2024-05-09T08:44:13.794Z,0.00
2024-05-09T08:46:42.218Z,0.00
2024-05-09T08:49:13.484Z,0.00
2024-05-09T08:51:43.959Z,0.00
2024-05-09T08:54:14.963Z,0.00
2024-05-09T08:56:46.378Z,0.00
2024-05-09T08:59:20.949Z,0.00
2024-05-09T09:01:49.137Z,0.00
2024-05-09T09:04:20.369Z,0.00
2024-05-09T09:06:53.252Z,0.00
2024-05-09T09:09:25.721Z,0.00
2024-05-09T09:11:53.834Z,0.00
2024-05-09T09:14:24.419Z,0.00
2024-05-09T09:16:52.207Z,0.00
2024-05-09T09:19:26.103Z,0.00
2024-05-09T09:21:57.242Z,0.00
2024-05-09T09:24:28.638Z,0.00
2024-05-09T09:26:57.457Z,0.00
2024-05-09T09:29:28.198Z,0.00
2024-05-09T09:31:59.341Z,0.00
2024-05-09T09:34:31.701Z,0.00
2024-05-09T09:37:05.777Z,0.00
2024-05-09T09:39:38.146Z,0.00
2024-05-09T09:42:06.759Z,0.00
2024-05-09T09:44:41.942Z,0.00
2024-05-09T09:47:10.331Z,0.00
2024-05-09T09:49:41.573Z,0.00
2024-05-09T09:52:13.379Z,0.00
2024-05-09T09:54:44.982Z,0.00
2024-05-09T09:57:12.783Z,0.00
2024-05-09T09:59:46.592Z,0.00
2024-05-09T10:02:14.720Z,0.00
2024-05-09T10:04:45.859Z,0.00
2024-05-09T10:07:17.714Z,0.00
2024-05-09T10:09:48.578Z,0.00
2024-05-09T10:12:16.583Z,0.00
2024-05-09T10:14:51.648Z,0.00
2024-05-09T10:17:19.387Z,0.00
2024-05-09T10:19:50.585Z,0.00
2024-05-09T10:22:29.459Z,0.00
2024-05-09T10:25:07.855Z,0.00
2024-05-09T10:27:35.834Z,0.00
2024-05-09T10:30:14.361Z,0.00
2024-05-09T10:32:45.591Z,0.00
2024-05-09T10:35:19.520Z,0.00
2024-05-09T10:37:51.379Z,0.00
2024-05-09T10:40:26.637Z,0.00
2024-05-09T10:43:00.559Z,0.00
2024-05-09T10:45:32.944Z,0.00
2024-05-09T10:48:01.158Z,0.00
2024-05-09T10:50:34.441Z,0.00
2024-05-09T10:53:05.858Z,0.00
2024-05-09T10:55:37.012Z,0.00
2024-05-09T10:58:05.102Z,0.00
2024-05-09T11:00:36.969Z,0.00
2024-05-09T11:03:05.328Z,0.00
2024-05-09T11:05:36.546Z,0.00
2024-05-09T11:08:07.526Z,0.00
2024-05-09T11:10:39.374Z,0.00
2024-05-09T11:13:07.022Z,0.00
2024-05-09T11:15:42.189Z,0.00
2024-05-09T11:18:24.440Z,0.00
2024-05-09T11:20:57.155Z,0.00
2024-05-09T11:23:30.679Z,0.00
2024-05-09T11:26:02.217Z,0.00
2024-05-09T11:28:31.549Z,0.00
2024-05-09T11:31:10.384Z,0.00
2024-05-09T11:33:39.693Z,0.00
2024-05-09T11:36:11.254Z,0.13
2024-05-09T11:38:41.539Z,0.57
2024-05-09T11:41:20.155Z,0.68
2024-05-09T11:43:47.710Z,2.03
2024-05-09T11:46:18.422Z,2.21
2024-05-09T11:48:46.334Z,2.96
2024-05-09T11:51:17.111Z,3.26
2024-05-09T11:53:47.331Z,3.36
2024-05-09T11:56:18.547Z,3.63
2024-05-09T11:58:46.581Z,3.02
2024-05-09T12:01:20.316Z,3.35
2024-05-09T12:03:49.717Z,3.05
2024-05-09T12:06:20.791Z,3.23
2024-05-09T12:08:51.201Z,2.92
2024-05-09T12:11:22.437Z,3.44
2024-05-09T12:13:49.822Z,2.45
2024-05-09T12:16:20.694Z,3.51
2024-05-09T12:18:48.463Z,3.86
2024-05-09T12:21:21.831Z,3.77
2024-05-09T12:23:52.517Z,2.90
2024-05-09T12:26:23.144Z,2.84
2024-05-09T12:28:51.522Z,3.09
2024-05-09T12:31:22.250Z,3.18
2024-05-09T12:33:50.068Z,3.79
2024-05-09T12:36:21.649Z,3.54
2024-05-09T12:38:52.331Z,4.04
2024-05-09T12:41:23.002Z,4.24
2024-05-09T12:43:50.834Z,4.19
2024-05-09T12:46:23.627Z,4.18
2024-05-09T12:48:52.345Z,4.10
2024-05-09T12:51:23.394Z,3.89
2024-05-09T12:53:54.162Z,3.86
2024-05-09T12:56:25.433Z,3.60
2024-05-09T12:58:53.372Z,3.33
2024-05-09T13:01:24.376Z,3.04
2024-05-09T13:03:52.287Z,3.04
2024-05-09T13:06:23.387Z,3.18
2024-05-09T13:08:53.948Z,2.92
2024-05-09T13:11:24.536Z,2.96
2024-05-09T13:13:52.258Z,3.45
2024-05-09T13:16:23.188Z,3.18
2024-05-09T13:18:51.082Z,2.87
2024-05-09T13:21:22.170Z,3.46
2024-05-09T13:23:50.046Z,2.95
2024-05-09T13:26:23.348Z,3.16
2024-05-09T13:28:51.422Z,3.11
2024-05-09T13:31:22.349Z,3.31
2024-05-09T13:33:50.490Z,3.30
2024-05-09T13:36:21.278Z,3.43
2024-05-09T13:38:49.459Z,3.62
2024-05-09T13:41:22.789Z,4.32
2024-05-09T13:43:50.884Z,3.78
2024-05-09T13:46:24.779Z,3.35
2024-05-09T13:48:52.920Z,3.91
2024-05-09T13:51:23.883Z,3.44
2024-05-09T13:53:51.821Z,3.24
2024-05-09T13:56:25.138Z,3.43
2024-05-09T13:58:55.101Z,3.38
2024-05-09T14:01:26.009Z,3.54
2024-05-09T14:03:54.038Z,3.38
2024-05-09T14:06:25.174Z,3.23
2024-05-09T14:08:52.841Z,3.77
2024-05-09T14:11:26.131Z,3.66
2024-05-09T14:13:53.866Z,4.17
2024-05-09T14:16:24.605Z,3.88
2024-05-09T14:18:52.274Z,3.94
2024-05-09T14:21:23.348Z,4.07
2024-05-09T14:23:51.257Z,3.47
2024-05-09T14:26:21.824Z,4.11
2024-05-09T14:28:52.076Z,4.04
2024-05-09T14:31:23.636Z,4.15
2024-05-09T14:33:51.944Z,3.88
2024-05-09T14:36:22.913Z,3.88
2024-05-09T14:38:50.805Z,4.07
2024-05-09T14:41:21.791Z,3.52
2024-05-09T14:43:52.486Z,3.67
2024-05-09T14:46:23.147Z,4.81
2024-05-09T14:48:51.799Z,4.69
2024-05-09T14:51:22.695Z,4.04
2024-05-09T14:53:50.573Z,4.55
2024-05-09T14:56:21.471Z,4.81
2024-05-09T14:58:51.640Z,3.96
2024-05-09T15:01:24.334Z,4.80
2024-05-09T15:03:52.136Z,4.65
2024-05-09T15:06:23.037Z,4.82
2024-05-09T15:08:54.944Z,4.76
2024-05-09T15:11:26.093Z,5.22
2024-05-09T15:13:56.446Z,4.56
2024-05-09T15:16:27.158Z,4.98
2024-05-09T15:18:55.111Z,4.77
2024-05-09T15:21:26.102Z,4.26
2024-05-09T15:23:53.819Z,4.56
2024-05-09T15:26:25.067Z,4.71
2024-05-09T15:28:52.705Z,4.57
2024-05-09T15:31:26.292Z,4.17
2024-05-09T15:33:54.164Z,5.07
2024-05-09T15:36:25.290Z,4.75
2024-05-09T15:38:52.899Z,4.92
2024-05-09T15:41:23.735Z,5.00
2024-05-09T15:43:51.365Z,4.83
2024-05-09T15:46:22.340Z,4.82
2024-05-09T15:48:53.013Z,4.51
2024-05-09T15:51:24.006Z,5.22
2024-05-09T15:53:51.627Z,5.19
2024-05-09T15:56:41.108Z,5.02
2024-05-09T15:59:11.906Z,4.96
2024-05-09T16:01:42.899Z,4.72
2024-05-09T16:04:15.587Z,4.51
2024-05-09T16:06:48.232Z,4.96
2024-05-09T16:09:16.169Z,5.02
2024-05-09T16:11:47.149Z,5.34
2024-05-09T16:14:16.307Z,5.56
2024-05-09T16:16:47.664Z,5.33
2024-05-09T16:19:18.032Z,5.20
2024-05-09T16:21:48.804Z,5.49
2024-05-09T16:24:16.734Z,5.47
2024-05-09T16:26:47.272Z,5.45
2024-05-09T16:29:16.123Z,5.47
2024-05-09T16:31:47.905Z,5.91
2024-05-09T16:34:23.162Z,5.41
2024-05-09T16:36:52.434Z,6.15
2024-05-09T16:39:23.206Z,5.90
2024-05-09T16:41:51.426Z,5.70
2024-05-09T16:44:21.904Z,5.87
2024-05-09T16:46:50.002Z,5.96
2024-05-09T16:49:24.202Z,6.01
2024-05-09T16:51:52.620Z,6.29
2024-05-09T16:54:22.841Z,6.17
2024-05-09T16:56:51.112Z,6.39
2024-05-09T16:59:22.675Z,6.26
2024-05-09T17:01:51.857Z,6.39
2024-05-09T17:04:25.378Z,5.92
2024-05-09T17:06:53.537Z,6.50
2024-05-09T17:09:25.022Z,6.41
2024-05-09T17:11:53.061Z,6.25
2024-05-09T17:14:23.415Z,6.85
2024-05-09T17:16:54.751Z,6.70
2024-05-09T17:19:27.969Z,6.44
2024-05-09T17:21:56.136Z,6.67
2024-05-09T17:24:26.663Z,6.92
2024-05-09T17:26:54.994Z,6.80
2024-05-09T17:29:25.317Z,6.70
2024-05-09T17:31:53.290Z,6.96
2024-05-09T17:34:23.685Z,6.81
2024-05-09T17:36:54.753Z,6.86
2024-05-09T17:39:26.717Z,7.26
2024-05-09T17:41:54.779Z,7.33
2024-05-09T17:44:24.924Z,7.70
2024-05-09T17:46:53.110Z,7.20
2024-05-09T17:49:23.521Z,7.43
2024-05-09T17:51:54.805Z,7.52
2024-05-09T17:54:25.061Z,7.07
2024-05-09T17:56:53.107Z,7.20
2024-05-09T17:59:23.599Z,7.57
2024-05-09T18:01:51.627Z,7.14
2024-05-09T18:04:22.638Z,7.51
2024-05-09T18:06:50.835Z,7.59
2024-05-09T18:09:23.818Z,7.34
2024-05-09T18:11:51.865Z,7.75
2024-05-09T18:14:22.254Z,7.69
2024-05-09T18:16:51.116Z,7.86
2024-05-09T18:19:22.031Z,8.04
2024-05-09T18:21:50.397Z,7.44
2024-05-09T18:24:24.984Z,8.09
2024-05-09T18:26:53.006Z,8.55
2024-05-09T18:29:23.867Z,8.20
2024-05-09T18:31:51.634Z,7.45
2024-05-09T18:34:21.970Z,8.50
2024-05-09T18:36:50.780Z,8.21
2024-05-09T18:39:24.099Z,8.19
2024-05-09T18:41:52.244Z,8.38
2024-05-09T18:44:22.569Z,8.49
2024-05-09T18:46:51.423Z,8.50
2024-05-09T18:49:22.027Z,8.65
2024-05-09T18:51:50.153Z,8.90
2024-05-09T18:54:20.457Z,9.09
2024-05-09T18:56:51.495Z,8.38
2024-05-09T18:59:22.265Z,9.12
2024-05-09T19:01:50.514Z,9.15
2024-05-09T19:04:22.405Z,9.26
2024-05-09T19:06:50.979Z,8.91
2024-05-09T19:09:21.719Z,9.31
2024-05-09T19:11:52.525Z,8.29
2024-05-09T19:14:23.221Z,9.03
2024-05-09T19:16:51.562Z,9.45
2024-05-09T19:19:22.352Z,9.54
2024-05-09T19:21:51.006Z,9.32
2024-05-09T19:24:22.550Z,9.22
2024-05-09T19:26:53.383Z,9.21
2024-05-09T19:29:23.982Z,9.53
2024-05-09T19:31:52.232Z,9.59
2024-05-09T19:34:22.882Z,9.78
2024-05-09T19:36:51.583Z,9.44
2024-05-09T19:39:22.220Z,9.59
2024-05-09T19:41:55.912Z,9.61
2024-05-09T19:44:23.578Z,9.98
2024-05-09T19:46:54.324Z,9.32
2024-05-09T19:49:22.489Z,9.50
2024-05-09T19:51:53.354Z,9.42
2024-05-09T19:54:21.071Z,9.84
2024-05-09T19:56:52.085Z,9.83
2024-05-09T19:59:22.689Z,9.56
2024-05-09T20:01:53.414Z,9.84
2024-05-09T20:04:21.715Z,9.66
2024-05-09T20:06:53.736Z,10.06
2024-05-09T20:09:21.474Z,10.05
2024-05-09T20:11:53.278Z,10.35
2024-05-09T20:14:23.966Z,10.14
2024-05-09T20:16:55.046Z,10.28
2024-05-09T20:19:22.872Z,10.16
2024-05-09T20:21:54.477Z,10.24
2024-05-09T20:24:22.781Z,10.18
2024-05-09T20:26:53.671Z,10.00
2024-05-09T20:29:24.202Z,9.83
2024-05-09T20:31:55.125Z,10.20
2024-05-09T20:34:23.374Z,10.07
2024-05-09T20:36:54.619Z,9.92
2024-05-09T20:39:25.561Z,9.95
2024-05-09T20:41:56.451Z,10.44
2024-05-09T20:44:27.293Z,10.07
2024-05-09T20:46:58.469Z,10.48
2024-05-09T20:49:26.223Z,10.44
2024-05-09T20:51:58.291Z,10.39
2024-05-09T20:54:26.104Z,10.32
2024-05-09T20:56:57.249Z,10.79
2024-05-09T20:59:27.785Z,10.03
2024-05-09T21:01:59.035Z,10.54
2024-05-09T21:04:27.443Z,10.36
2024-05-09T21:06:58.732Z,10.84
2024-05-09T21:09:26.457Z,10.78
2024-05-09T21:11:57.411Z,10.65
2024-05-09T21:14:30.571Z,10.29
2024-05-09T21:16:59.221Z,10.64
2024-05-09T21:19:29.817Z,11.09
2024-05-09T21:21:58.224Z,10.69
2024-05-09T21:24:30.585Z,10.97
2024-05-09T21:26:58.736Z,10.73
2024-05-09T21:29:31.533Z,10.52
2024-05-09T21:31:59.640Z,10.95
2024-05-09T21:34:30.194Z,11.15
2024-05-09T21:36:58.684Z,11.32
2024-05-09T21:39:30.368Z,11.10
2024-05-09T21:42:02.018Z,11.18
2024-05-09T21:44:35.166Z,10.95
2024-05-09T21:47:03.398Z,11.56
2024-05-09T21:49:34.373Z,11.45
2024-05-09T21:52:02.949Z,11.53
2024-05-09T21:54:33.078Z,11.73
2024-05-09T21:57:01.229Z,11.43
2024-05-09T21:59:34.456Z,11.42
2024-05-09T22:02:02.741Z,11.74
2024-05-09T22:04:33.591Z,11.78
2024-05-09T22:07:01.658Z,11.63
2024-05-09T22:09:31.920Z,12.12
2024-05-09T22:11:59.915Z,11.76
2024-05-09T22:14:30.240Z,11.92
2024-05-09T22:17:00.704Z,11.68
2024-05-09T22:19:32.075Z,11.68
2024-05-09T22:22:00.313Z,12.03
2024-05-09T22:24:30.530Z,12.09
2024-05-09T22:26:59.066Z,12.16
2024-05-09T22:29:29.554Z,12.16
2024-05-09T22:31:57.695Z,12.08
2024-05-09T22:34:31.335Z,11.63
2024-05-09T22:37:01.396Z,12.23
2024-05-09T22:39:32.415Z,12.00
2024-05-09T22:42:00.415Z,11.84
2024-05-09T22:44:30.844Z,12.17
2024-05-09T22:46:58.827Z,12.01
2024-05-09T22:49:32.341Z,12.12
2024-05-09T22:52:00.655Z,12.66
2024-05-09T22:54:30.993Z,12.52
2024-05-09T22:56:58.987Z,12.48
2024-05-09T22:59:29.595Z,12.64
2024-05-09T23:01:57.692Z,12.81
2024-05-09T23:04:27.976Z,12.90
2024-05-09T23:06:59.215Z,12.60
2024-05-09T23:09:29.691Z,12.82
2024-05-09T23:11:57.735Z,12.86
2024-05-09T23:14:28.943Z,13.00
2024-05-09T23:16:56.923Z,12.83
2024-05-09T23:19:27.687Z,12.69
2024-05-09T23:21:58.699Z,12.93
2024-05-09T23:24:29.713Z,12.79
2024-05-09T23:26:58.372Z,13.13
2024-05-09T23:29:28.759Z,13.15
2024-05-09T23:31:57.303Z,13.07
2024-05-09T23:34:27.753Z,12.92
2024-05-09T23:36:55.818Z,12.96
2024-05-09T23:39:29.270Z,12.84
2024-05-09T23:42:00.514Z,13.06
2024-05-09T23:44:30.707Z,13.18
2024-05-09T23:46:58.720Z,12.81
2024-05-09T23:49:29.200Z,13.09
2024-05-09T23:51:57.170Z,13.03
2024-05-09T23:54:30.033Z,13.06
2024-05-09T23:56:58.075Z,13.09
2024-05-09T23:59:28.441Z,13.10
